sensor_id;sensor_type;location;lat;lon;timestamp;pressure;altitude;pressure_sealevel;temperature;humidity
46412;BME280;32113;42.012;24.870;2022-12-18T00:01:22;99605.22;;;13.22;100.00
46412;BME280;32113;42.012;24.870;2022-12-18T00:03:48;99617.41;;;13.11;100.00
46412;BME280;32113;42.012;24.870;2022-12-18T00:06:14;99621.06;;;12.91;100.00
46412;BME280;32113;42.012;24.870;2022-12-18T00:08:40;99632.22;;;12.90;100.00
46412;BME280;32113;42.012;24.870;2022-12-18T00:11:10;99639.13;;;12.86;100.00
46412;BME280;32113;42.012;24.870;2022-12-18T00:13:36;99645.16;;;12.85;100.00
46412;BME280;32113;42.012;24.870;2022-12-18T00:16:05;99645.13;;;12.87;100.00
46412;BME280;32113;42.012;24.870;2022-12-18T00:18:31;99642.50;;;12.93;100.00
46412;BME280;32113;42.012;24.870;2022-12-18T00:21:00;99640.72;;;12.97;100.00
46412;BME280;32113;42.012;24.870;2022-12-18T00:23:26;99657.84;;;13.03;100.00
46412;BME280;32113;42.012;24.870;2022-12-18T00:25:51;99657.75;;;13.10;100.00
46412;BME280;32113;42.012;24.870;2022-12-18T00:28:16;99659.41;;;13.18;99.10
46412;BME280;32113;42.012;24.870;2022-12-18T00:30:42;99659.44;;;13.14;98.75
46412;BME280;32113;42.012;24.870;2022-12-18T00:33:07;99665.44;;;13.15;98.02
46412;BME280;32113;42.012;24.870;2022-12-18T00:35:33;99668.97;;;13.06;98.50
46412;BME280;32113;42.012;24.870;2022-12-18T00:37:58;99666.44;;;13.03;98.25
46412;BME280;32113;42.012;24.870;2022-12-18T00:40:23;99674.22;;;12.95;99.08
46412;BME280;32113;42.012;24.870;2022-12-18T00:42:48;99678.56;;;12.92;98.56
46412;BME280;32113;42.012;24.870;2022-12-18T00:45:23;99684.56;;;12.94;98.91
46412;BME280;32113;42.012;24.870;2022-12-18T00:47:48;99684.59;;;12.89;99.39
46412;BME280;32113;42.012;24.870;2022-12-18T00:50:14;99691.53;;;12.82;100.00
46412;BME280;32113;42.012;24.870;2022-12-18T00:52:41;99688.06;;;12.85;100.00
46412;BME280;32113;42.012;24.870;2022-12-18T00:55:06;99682.00;;;12.94;100.00
46412;BME280;32113;42.012;24.870;2022-12-18T00:57:32;99683.69;;;12.95;99.69
46412;BME280;32113;42.012;24.870;2022-12-18T00:59:57;99675.06;;;12.97;99.71
46412;BME280;32113;42.012;24.870;2022-12-18T01:02:22;99674.22;;;12.97;99.39
46412;BME280;32113;42.012;24.870;2022-12-18T01:04:48;99669.06;;;12.97;99.03
46412;BME280;32113;42.012;24.870;2022-12-18T01:07:13;99669.94;;;12.96;97.67
46412;BME280;32113;42.012;24.870;2022-12-18T01:09:38;99668.22;;;12.95;97.67
46412;BME280;32113;42.012;24.870;2022-12-18T01:12:04;99670.91;;;12.85;98.27
46412;BME280;32113;42.012;24.870;2022-12-18T01:14:29;99669.31;;;12.73;99.28
46412;BME280;32113;42.012;24.870;2022-12-18T01:16:54;99676.28;;;12.60;99.54
46412;BME280;32113;42.012;24.870;2022-12-18T01:19:19;99675.44;;;12.57;99.90
46412;BME280;32113;42.012;24.870;2022-12-18T01:21:45;99684.91;;;12.55;100.00
46412;BME280;32113;42.012;24.870;2022-12-18T01:24:10;99692.56;;;12.61;100.00
46412;BME280;32113;42.012;24.870;2022-12-18T01:26:36;99686.53;;;12.62;100.00
46412;BME280;32113;42.012;24.870;2022-12-18T01:29:01;99680.56;;;12.63;100.00
46412;BME280;32113;42.012;24.870;2022-12-18T01:31:28;99675.34;;;12.68;100.00
46412;BME280;32113;42.012;24.870;2022-12-18T01:33:54;99677.91;;;12.72;100.00
46412;BME280;32113;42.012;24.870;2022-12-18T01:36:23;99689.84;;;12.78;99.41
46412;BME280;32113;42.012;24.870;2022-12-18T01:38:49;99689.03;;;12.74;98.53
46412;BME280;32113;42.012;24.870;2022-12-18T01:41:15;99692.41;;;12.78;98.04
46412;BME280;32113;42.012;24.870;2022-12-18T01:43:44;99701.00;;;12.77;97.69
46412;BME280;32113;42.012;24.870;2022-12-18T01:46:10;99694.97;;;12.84;97.06
46412;BME280;32113;42.012;24.870;2022-12-18T01:48:35;99697.53;;;12.84;96.11
46412;BME280;32113;42.012;24.870;2022-12-18T01:51:01;99695.88;;;12.75;96.75
46412;BME280;32113;42.012;24.870;2022-12-18T01:53:26;99695.00;;;12.78;96.85
46412;BME280;32113;42.012;24.870;2022-12-18T01:55:53;99704.47;;;12.74;96.92
46412;BME280;32113;42.012;24.870;2022-12-18T01:58:19;99697.63;;;12.75;97.17
46412;BME280;32113;42.012;24.870;2022-12-18T02:00:45;99687.34;;;12.69;98.13
46412;BME280;32113;42.012;24.870;2022-12-18T02:03:10;99690.81;;;12.65;98.73
46412;BME280;32113;42.012;24.870;2022-12-18T02:15:46;99703.81;;;12.49;98.58
46412;BME280;32113;42.012;24.870;2022-12-18T02:18:19;99702.97;;;12.48;97.74
46412;BME280;32113;42.012;24.870;2022-12-18T02:20:51;99697.88;;;12.41;97.67
46412;BME280;32113;42.012;24.870;2022-12-18T02:28:46;99709.97;;;12.28;98.91
46412;BME280;32113;42.012;24.870;2022-12-18T02:31:16;99713.31;;;12.42;98.17
46412;BME280;32113;42.012;24.870;2022-12-18T02:33:43;99721.03;;;12.41;98.71
46412;BME280;32113;42.012;24.870;2022-12-18T02:36:09;99716.75;;;12.38;99.27
46412;BME280;32113;42.012;24.870;2022-12-18T02:38:36;99715.94;;;12.33;99.74
46412;BME280;32113;42.012;24.870;2022-12-18T02:41:02;99722.78;;;12.34;99.87
46412;BME280;32113;42.012;24.870;2022-12-18T02:43:29;99712.53;;;12.31;98.89
46412;BME280;32113;42.012;24.870;2022-12-18T02:45:56;99717.69;;;12.31;100.00
46412;BME280;32113;42.012;24.870;2022-12-18T02:48:26;99709.91;;;12.37;99.38
46412;BME280;32113;42.012;24.870;2022-12-18T02:53:33;99712.41;;;12.46;98.08
46412;BME280;32113;42.012;24.870;2022-12-18T02:56:15;99710.72;;;12.42;97.98
46412;BME280;32113;42.012;24.870;2022-12-18T02:58:48;99709.09;;;12.33;98.84
46412;BME280;32113;42.012;24.870;2022-12-18T03:01:30;99714.31;;;12.21;99.78
46412;BME280;32113;42.012;24.870;2022-12-18T03:04:00;99713.47;;;12.14;100.00
46412;BME280;32113;42.012;24.870;2022-12-18T03:06:28;99714.41;;;12.08;99.52
46412;BME280;32113;42.012;24.870;2022-12-18T03:08:58;99710.13;;;11.98;100.00
46412;BME280;32113;42.012;24.870;2022-12-18T03:11:25;99714.38;;;12.01;100.00
46412;BME280;32113;42.012;24.870;2022-12-18T03:14:10;99710.13;;;12.06;100.00
46412;BME280;32113;42.012;24.870;2022-12-18T03:16:37;99721.22;;;12.14;100.00
46412;BME280;32113;42.012;24.870;2022-12-18T03:19:06;99717.69;;;12.26;99.15
46412;BME280;32113;42.012;24.870;2022-12-18T03:21:36;99720.34;;;12.17;98.83
46412;BME280;32113;42.012;24.870;2022-12-18T03:24:03;99727.28;;;11.99;99.33
46412;BME280;32113;42.012;24.870;2022-12-18T03:26:29;99727.34;;;11.85;100.00
46412;BME280;32113;42.012;24.870;2022-12-18T03:28:56;99727.31;;;11.90;100.00
46412;BME280;32113;42.012;24.870;2022-12-18T03:31:23;99737.56;;;11.99;100.00
46412;BME280;32113;42.012;24.870;2022-12-18T03:33:52;99739.28;;;12.00;100.00
46412;BME280;32113;42.012;24.870;2022-12-18T03:36:18;99745.25;;;12.08;99.50
46412;BME280;32113;42.012;24.870;2022-12-18T03:38:43;99741.84;;;11.97;99.99
46412;BME280;32113;42.012;24.870;2022-12-18T03:41:19;99747.06;;;11.80;100.00
46412;BME280;32113;42.012;24.870;2022-12-18T03:46:25;99756.47;;;11.84;100.00
46412;BME280;32113;42.012;24.870;2022-12-18T03:48:52;99766.81;;;11.75;100.00
46412;BME280;32113;42.012;24.870;2022-12-18T03:51:39;99769.34;;;11.79;100.00
46412;BME280;32113;42.012;24.870;2022-12-18T03:54:07;99771.00;;;11.91;100.00
46412;BME280;32113;42.012;24.870;2022-12-18T03:56:35;99778.75;;;11.82;100.00
46412;BME280;32113;42.012;24.870;2022-12-18T03:59:02;99777.09;;;11.72;100.00
46412;BME280;32113;42.012;24.870;2022-12-18T04:01:30;99779.66;;;11.72;100.00
46412;BME280;32113;42.012;24.870;2022-12-18T04:03:57;99777.97;;;11.58;100.00
46412;BME280;32113;42.012;24.870;2022-12-18T04:06:24;99783.97;;;11.55;100.00
46412;BME280;32113;42.012;24.870;2022-12-18T04:08:50;99788.31;;;11.44;100.00
46412;BME280;32113;42.012;24.870;2022-12-18T04:11:15;99786.59;;;11.41;100.00
46412;BME280;32113;42.012;24.870;2022-12-18T04:13:41;99784.88;;;11.42;100.00
46412;BME280;32113;42.012;24.870;2022-12-18T04:16:07;99781.44;;;11.52;100.00
46412;BME280;32113;42.012;24.870;2022-12-18T04:18:34;99789.13;;;11.55;100.00
46412;BME280;32113;42.012;24.870;2022-12-18T04:20:59;99787.41;;;11.51;100.00
46412;BME280;32113;42.012;24.870;2022-12-18T04:23:25;99794.28;;;11.52;100.00
46412;BME280;32113;42.012;24.870;2022-12-18T04:25:50;99793.41;;;11.50;100.00
46412;BME280;32113;42.012;24.870;2022-12-18T04:28:15;99799.44;;;11.48;100.00
46412;BME280;32113;42.012;24.870;2022-12-18T04:30:40;99796.88;;;11.51;100.00
46412;BME280;32113;42.012;24.870;2022-12-18T04:33:09;99792.59;;;11.39;100.00
46412;BME280;32113;42.012;24.870;2022-12-18T04:35:35;99801.16;;;11.39;100.00
46412;BME280;32113;42.012;24.870;2022-12-18T04:38:00;99799.44;;;11.52;100.00
46412;BME280;32113;42.012;24.870;2022-12-18T04:40:25;99801.97;;;11.62;100.00
46412;BME280;32113;42.012;24.870;2022-12-18T04:42:50;99807.06;;;11.73;99.42
46412;BME280;32113;42.012;24.870;2022-12-18T04:45:16;99815.66;;;11.73;100.00
46412;BME280;32113;42.012;24.870;2022-12-18T04:47:41;99819.06;;;11.83;99.63
46412;BME280;32113;42.012;24.870;2022-12-18T04:50:06;99820.75;;;11.86;99.62
46412;BME280;32113;42.012;24.870;2022-12-18T04:52:32;99819.91;;;11.87;99.55
46412;BME280;32113;42.012;24.870;2022-12-18T04:54:57;99826.72;;;11.94;98.76
46412;BME280;32113;42.012;24.870;2022-12-18T04:57:22;99835.25;;;12.01;97.73
46412;BME280;32113;42.012;24.870;2022-12-18T04:59:48;99834.41;;;12.08;98.44
46412;BME280;32113;42.012;24.870;2022-12-18T05:02:13;99830.97;;;12.14;97.96
46412;BME280;32113;42.012;24.870;2022-12-18T05:04:38;99838.66;;;12.23;97.73
46412;BME280;32113;42.012;24.870;2022-12-18T05:07:03;99846.34;;;12.29;95.65
46412;BME280;32113;42.012;24.870;2022-12-18T05:09:29;99850.63;;;12.33;94.91
46412;BME280;32113;42.012;24.870;2022-12-18T05:11:54;99846.34;;;12.31;94.81
46412;BME280;32113;42.012;24.870;2022-12-18T05:14:19;99853.22;;;12.27;95.20
46412;BME280;32113;42.012;24.870;2022-12-18T05:16:44;99858.34;;;12.30;94.89
46412;BME280;32113;42.012;24.870;2022-12-18T05:19:10;99860.91;;;12.33;94.42
46412;BME280;32113;42.012;24.870;2022-12-18T05:21:35;99862.63;;;12.31;94.25
46412;BME280;32113;42.012;24.870;2022-12-18T05:24:00;99874.59;;;12.35;94.03
46412;BME280;32113;42.012;24.870;2022-12-18T05:26:26;99873.78;;;12.33;93.98
46412;BME280;32113;42.012;24.870;2022-12-18T05:28:51;99876.38;;;12.19;95.38
46412;BME280;32113;42.012;24.870;2022-12-18T05:31:16;99881.56;;;12.12;96.52
46412;BME280;32113;42.012;24.870;2022-12-18T05:33:42;99887.56;;;12.07;97.48
46412;BME280;32113;42.012;24.870;2022-12-18T05:36:07;99887.56;;;12.11;97.32
46412;BME280;32113;42.012;24.870;2022-12-18T05:38:34;99886.69;;;12.12;97.30
46412;BME280;32113;42.012;24.870;2022-12-18T05:40:59;99895.25;;;12.20;96.05
46412;BME280;32113;42.012;24.870;2022-12-18T05:43:25;99902.97;;;12.18;96.38
46412;BME280;32113;42.012;24.870;2022-12-18T05:45:51;99902.09;;;12.27;95.99
46412;BME280;32113;42.012;24.870;2022-12-18T05:48:17;99907.22;;;12.37;95.06
46412;BME280;32113;42.012;24.870;2022-12-18T05:50:43;99904.63;;;12.40;94.31
46412;BME280;32113;42.012;24.870;2022-12-18T05:53:10;99915.81;;;12.32;95.08
46412;BME280;32113;42.012;24.870;2022-12-18T05:55:36;99918.38;;;12.29;95.49
46412;BME280;32113;42.012;24.870;2022-12-18T05:58:02;99930.38;;;12.32;95.78
46412;BME280;32113;42.012;24.870;2022-12-18T06:00:28;99926.06;;;12.34;95.40
46412;BME280;32113;42.012;24.870;2022-12-18T06:02:53;99933.78;;;12.35;95.97
46412;BME280;32113;42.012;24.870;2022-12-18T06:05:19;99939.81;;;12.39;95.66
46412;BME280;32113;42.012;24.870;2022-12-18T06:07:44;99942.38;;;12.39;95.61
46412;BME280;32113;42.012;24.870;2022-12-18T06:10:09;99944.09;;;12.40;95.18
46412;BME280;32113;42.012;24.870;2022-12-18T06:12:35;99939.78;;;12.44;94.70
46412;BME280;32113;42.012;24.870;2022-12-18T06:15:00;99943.22;;;12.46;94.22
46412;BME280;32113;42.012;24.870;2022-12-18T06:17:32;99953.50;;;12.43;94.83
46412;BME280;32113;42.012;24.870;2022-12-18T06:19:57;99962.94;;;12.42;95.60
46412;BME280;32113;42.012;24.870;2022-12-18T06:22:23;99962.06;;;12.45;95.20
46412;BME280;32113;42.012;24.870;2022-12-18T06:24:48;99960.38;;;12.44;95.23
46412;BME280;32113;42.012;24.870;2022-12-18T06:27:14;99958.63;;;12.47;94.75
46412;BME280;32113;42.012;24.870;2022-12-18T06:29:39;99967.22;;;12.46;96.23
46412;BME280;32113;42.012;24.870;2022-12-18T06:32:04;99971.53;;;12.46;95.70
46412;BME280;32113;42.012;24.870;2022-12-18T06:34:30;99979.25;;;12.43;96.49
46412;BME280;32113;42.012;24.870;2022-12-18T06:36:55;99978.38;;;12.47;96.50
46412;BME280;32113;42.012;24.870;2022-12-18T06:39:20;99980.94;;;12.52;96.31
46412;BME280;32113;42.012;24.870;2022-12-18T06:41:45;99984.38;;;12.54;95.95
46412;BME280;32113;42.012;24.870;2022-12-18T06:44:11;99985.19;;;12.54;95.62
46412;BME280;32113;42.012;24.870;2022-12-18T06:46:36;99986.06;;;12.58;95.27
46412;BME280;32113;42.012;24.870;2022-12-18T06:49:03;99987.78;;;12.57;95.81
46412;BME280;32113;42.012;24.870;2022-12-18T06:51:28;99986.88;;;12.65;95.77
46412;BME280;32113;42.012;24.870;2022-12-18T06:53:54;100004.06;;;12.66;95.68
46412;BME280;32113;42.012;24.870;2022-12-18T06:56:19;99994.59;;;12.68;95.59
46412;BME280;32113;42.012;24.870;2022-12-18T06:58:44;99996.34;;;12.66;95.99
46412;BME280;32113;42.012;24.870;2022-12-18T07:01:10;100008.34;;;12.67;96.53
46412;BME280;32113;42.012;24.870;2022-12-18T07:03:36;100010.91;;;12.70;96.83
46412;BME280;32113;42.012;24.870;2022-12-18T07:06:01;100008.31;;;12.78;96.52
46412;BME280;32113;42.012;24.870;2022-12-18T07:08:27;100022.84;;;12.83;95.65
46412;BME280;32113;42.012;24.870;2022-12-18T07:10:53;100022.84;;;12.88;94.80
46412;BME280;32113;42.012;24.870;2022-12-18T07:13:19;100022.81;;;12.94;94.27
46412;BME280;32113;42.012;24.870;2022-12-18T07:15:44;100020.28;;;12.88;94.60
46412;BME280;32113;42.012;24.870;2022-12-18T07:18:09;100016.84;;;12.87;95.48
46412;BME280;32113;42.012;24.870;2022-12-18T07:20:35;100022.00;;;12.86;95.43
46412;BME280;32113;42.012;24.870;2022-12-18T07:23:04;100032.31;;;12.86;96.22
46412;BME280;32113;42.012;24.870;2022-12-18T07:25:30;100038.31;;;12.90;96.03
46412;BME280;32113;42.012;24.870;2022-12-18T07:27:55;100032.28;;;12.92;96.03
46412;BME280;32113;42.012;24.870;2022-12-18T07:30:21;100030.53;;;12.97;96.24
46412;BME280;32113;42.012;24.870;2022-12-18T07:32:46;100035.69;;;12.97;95.96
46412;BME280;32113;42.012;24.870;2022-12-18T07:35:12;100039.97;;;13.03;95.58
46412;BME280;32113;42.012;24.870;2022-12-18T07:37:37;100037.34;;;13.08;95.37
46412;BME280;32113;42.012;24.870;2022-12-18T07:40:02;100044.22;;;13.10;93.63
46412;BME280;32113;42.012;24.870;2022-12-18T07:42:28;100043.34;;;13.13;94.05
46412;BME280;32113;42.012;24.870;2022-12-18T07:44:56;100044.19;;;13.17;93.90
46412;BME280;32113;42.012;24.870;2022-12-18T07:47:21;100053.59;;;13.21;93.78
46412;BME280;32113;42.012;24.870;2022-12-18T07:49:47;100055.31;;;13.25;93.75
46412;BME280;32113;42.012;24.870;2022-12-18T07:52:12;100056.97;;;13.35;93.69
46412;BME280;32113;42.012;24.870;2022-12-18T07:54:37;100054.41;;;13.31;94.14
46412;BME280;32113;42.012;24.870;2022-12-18T07:57:03;100072.47;;;13.32;94.52
46412;BME280;32113;42.012;24.870;2022-12-18T07:59:28;100069.84;;;13.35;94.68
46412;BME280;32113;42.012;24.870;2022-12-18T08:01:54;100071.53;;;13.41;94.06
46412;BME280;32113;42.012;24.870;2022-12-18T08:04:19;100074.94;;;13.45;94.37
46412;BME280;32113;42.012;24.870;2022-12-18T08:06:44;100073.28;;;13.37;93.97
46412;BME280;32113;42.012;24.870;2022-12-18T08:09:10;100082.81;;;13.20;95.46
46412;BME280;32113;42.012;24.870;2022-12-18T08:11:35;100085.41;;;13.20;95.71
46412;BME280;32113;42.012;24.870;2022-12-18T08:14:00;100082.03;;;13.10;96.47
46412;BME280;32113;42.012;24.870;2022-12-18T08:16:26;100085.47;;;13.01;97.71
46412;BME280;32113;42.012;24.870;2022-12-18T08:18:52;100089.75;;;13.02;97.94
46412;BME280;32113;42.012;24.870;2022-12-18T08:21:18;100094.03;;;13.06;97.79
46412;BME280;32113;42.012;24.870;2022-12-18T08:23:45;100094.03;;;13.11;97.71
46412;BME280;32113;42.012;24.870;2022-12-18T08:26:11;100096.59;;;13.12;97.89
46412;BME280;32113;42.012;24.870;2022-12-18T08:28:36;100096.63;;;13.11;98.36
46412;BME280;32113;42.012;24.870;2022-12-18T08:31:02;100095.75;;;13.10;97.70
46412;BME280;32113;42.012;24.870;2022-12-18T08:33:27;100105.19;;;13.11;98.15
46412;BME280;32113;42.012;24.870;2022-12-18T08:35:52;100107.75;;;13.11;98.41
46412;BME280;32113;42.012;24.870;2022-12-18T08:38:18;100104.31;;;13.16;98.40
46412;BME280;32113;42.012;24.870;2022-12-18T08:40:43;100091.38;;;13.25;97.10
46412;BME280;32113;42.012;24.870;2022-12-18T08:43:11;100099.09;;;13.28;95.90
46412;BME280;32113;42.012;24.870;2022-12-18T08:45:55;100091.34;;;13.36;95.01
46412;BME280;32113;42.012;24.870;2022-12-18T08:48:20;100095.63;;;13.38;94.21
46412;BME280;32113;42.012;24.870;2022-12-18T08:50:56;100099.03;;;13.44;93.63
46412;BME280;32113;42.012;24.870;2022-12-18T08:53:21;100092.16;;;13.44;93.32
46412;BME280;32113;42.012;24.870;2022-12-18T08:55:47;100092.16;;;13.49;92.55
46412;BME280;32113;42.012;24.870;2022-12-18T08:58:12;100091.25;;;13.55;92.50
46412;BME280;32113;42.012;24.870;2022-12-18T09:00:37;100092.09;;;13.58;91.65
46412;BME280;32113;42.012;24.870;2022-12-18T09:03:02;100086.06;;;13.61;91.64
46412;BME280;32113;42.012;24.870;2022-12-18T09:05:28;100079.19;;;13.61;91.45
46412;BME280;32113;42.012;24.870;2022-12-18T09:07:53;100081.75;;;13.64;91.48
46412;BME280;32113;42.012;24.870;2022-12-18T09:10:18;100080.00;;;13.70;90.51
46412;BME280;32113;42.012;24.870;2022-12-18T09:12:43;100082.59;;;13.71;89.26
46412;BME280;32113;42.012;24.870;2022-12-18T09:15:09;100078.25;;;13.73;88.91
46412;BME280;32113;42.012;24.870;2022-12-18T09:17:34;100081.66;;;13.82;87.53
46412;BME280;32113;42.012;24.870;2022-12-18T09:19:59;100081.66;;;13.82;86.73
46412;BME280;32113;42.012;24.870;2022-12-18T09:22:25;100079.94;;;13.79;85.22
46412;BME280;32113;42.012;24.870;2022-12-18T09:24:50;100084.28;;;13.72;85.61
46412;BME280;32113;42.012;24.870;2022-12-18T09:27:15;100087.69;;;13.73;86.40
46412;BME280;32113;42.012;24.870;2022-12-18T09:29:40;100085.13;;;13.74;86.33
46412;BME280;32113;42.012;24.870;2022-12-18T09:32:06;100096.31;;;13.73;87.15
46412;BME280;32113;42.012;24.870;2022-12-18T09:34:31;100090.28;;;13.74;87.46
46412;BME280;32113;42.012;24.870;2022-12-18T09:36:56;100088.50;;;13.86;86.24
46412;BME280;32113;42.012;24.870;2022-12-18T09:39:21;100093.66;;;13.84;86.28
46412;BME280;32113;42.012;24.870;2022-12-18T09:41:51;100091.09;;;13.84;86.91
46412;BME280;32113;42.012;24.870;2022-12-18T09:44:29;100086.72;;;13.92;86.62
46412;BME280;32113;42.012;24.870;2022-12-18T09:47:12;100088.44;;;13.93;86.14
46412;BME280;32113;42.012;24.870;2022-12-18T09:49:43;100088.38;;;14.00;85.89
46412;BME280;32113;42.012;24.870;2022-12-18T09:52:11;100087.47;;;14.07;84.59
46412;BME280;32113;42.012;24.870;2022-12-18T09:54:41;100090.06;;;14.05;84.08
46412;BME280;32113;42.012;24.870;2022-12-18T09:57:10;100083.13;;;14.12;82.73
46412;BME280;32113;42.012;24.870;2022-12-18T09:59:38;100087.44;;;14.10;81.44
46412;BME280;32113;42.012;24.870;2022-12-18T10:02:20;100096.91;;;14.08;81.87
46412;BME280;32113;42.012;24.870;2022-12-18T10:04:52;100090.00;;;14.10;82.23
46412;BME280;32113;42.012;24.870;2022-12-18T10:10:10;100090.09;;;14.01;82.35
46412;BME280;32113;42.012;24.870;2022-12-18T10:12:43;100088.44;;;13.90;81.11
46412;BME280;32113;42.012;24.870;2022-12-18T10:15:18;100082.59;;;13.71;82.97
46412;BME280;32113;42.012;24.870;2022-12-18T10:18:49;100089.50;;;13.63;84.37
46412;BME280;32113;42.012;24.870;2022-12-18T10:20:45;100085.22;;;13.57;86.22
46412;BME280;32113;42.012;24.870;2022-12-18T10:28:13;100096.31;;;13.73;86.88
46412;BME280;32113;42.012;24.870;2022-12-18T10:30:39;100103.16;;;13.79;86.43
46412;BME280;32113;42.012;24.870;2022-12-18T10:33:05;100100.56;;;13.79;86.59
46412;BME280;32113;42.012;24.870;2022-12-18T10:35:31;100105.75;;;13.79;86.58
46412;BME280;32113;42.012;24.870;2022-12-18T10:38:00;100103.16;;;13.76;86.43
46412;BME280;32113;42.012;24.870;2022-12-18T10:40:26;100104.88;;;13.80;85.28
46412;BME280;32113;42.012;24.870;2022-12-18T10:43:03;100105.75;;;13.73;85.89
46412;BME280;32113;42.012;24.870;2022-12-18T10:45:28;100112.63;;;13.75;85.29
46412;BME280;32113;42.012;24.870;2022-12-18T10:47:53;100117.00;;;13.67;84.86
46412;BME280;32113;42.012;24.870;2022-12-18T10:50:20;100116.16;;;13.59;84.97
46412;BME280;32113;42.012;24.870;2022-12-18T10:52:56;100123.91;;;13.62;85.31
46412;BME280;32113;42.012;24.870;2022-12-18T10:55:22;100129.94;;;13.58;86.80
46412;BME280;32113;42.012;24.870;2022-12-18T10:57:47;100127.34;;;13.56;86.77
46412;BME280;32113;42.012;24.870;2022-12-18T11:00:23;100134.28;;;13.48;88.13
46412;BME280;32113;42.012;24.870;2022-12-18T11:02:49;100131.69;;;13.42;86.82
46412;BME280;32113;42.012;24.870;2022-12-18T11:05:31;100128.34;;;13.24;86.43
46412;BME280;32113;42.012;24.870;2022-12-18T11:07:57;100134.38;;;13.09;85.99
46412;BME280;32113;42.012;24.870;2022-12-18T11:10:28;100131.84;;;13.04;84.52
46412;BME280;32113;42.012;24.870;2022-12-18T11:12:53;100134.41;;;13.06;82.75
46412;BME280;32113;42.012;24.870;2022-12-18T11:15:20;100138.66;;;13.11;81.74
46412;BME280;32113;42.012;24.870;2022-12-18T11:17:47;100138.66;;;13.16;80.31
46412;BME280;32113;42.012;24.870;2022-12-18T11:20:34;100146.38;;;13.27;79.22
46412;BME280;32113;42.012;24.870;2022-12-18T11:23:01;100148.91;;;13.33;79.11
46412;BME280;32113;42.012;24.870;2022-12-18T11:25:27;100148.88;;;13.41;79.39
46412;BME280;32113;42.012;24.870;2022-12-18T11:28:23;100148.00;;;13.51;78.03
46412;BME280;32113;42.012;24.870;2022-12-18T11:30:47;100150.56;;;13.56;77.54
46412;BME280;32113;42.012;24.870;2022-12-18T11:33:14;100154.84;;;13.54;79.24
46412;BME280;32113;42.012;24.870;2022-12-18T11:35:49;100146.28;;;13.53;79.39
46412;BME280;32113;42.012;24.870;2022-12-18T11:38:20;100156.59;;;13.50;79.85
46412;BME280;32113;42.012;24.870;2022-12-18T11:48:58;100161.72;;;13.58;78.84
46412;BME280;32113;42.012;24.870;2022-12-18T11:51:29;100169.47;;;13.57;76.86
46412;BME280;32113;42.012;24.870;2022-12-18T11:53:58;100171.19;;;13.58;77.20
46412;BME280;32113;42.012;24.870;2022-12-18T12:09:11;100183.22;;;13.59;76.46
46412;BME280;32113;42.012;24.870;2022-12-18T12:17:58;100176.34;;;13.55;75.43
46412;BME280;32113;42.012;24.870;2022-12-18T12:20:10;100181.53;;;13.50;74.77
46412;BME280;32113;42.012;24.870;2022-12-18T12:25:33;100173.81;;;13.50;74.89
46412;BME280;32113;42.012;24.870;2022-12-18T12:28:23;100178.94;;;13.55;73.39
46412;BME280;32113;42.012;24.870;2022-12-18T12:33:44;100184.97;;;13.49;73.41
46412;BME280;32113;42.012;24.870;2022-12-18T12:38:57;100188.41;;;13.48;72.46
46412;BME280;32113;42.012;24.870;2022-12-18T12:41:25;100199.59;;;13.48;72.32
46412;BME280;32113;42.012;24.870;2022-12-18T12:44:16;100208.16;;;13.49;71.92
46412;BME280;32113;42.012;24.870;2022-12-18T12:46:43;100208.16;;;13.52;72.06
46412;BME280;32113;42.012;24.870;2022-12-18T12:49:10;100216.78;;;13.52;71.95
46412;BME280;32113;42.012;24.870;2022-12-18T12:51:38;100211.63;;;13.49;72.44
46412;BME280;32113;42.012;24.870;2022-12-18T12:54:06;100217.63;;;13.50;72.79
46412;BME280;32113;42.012;24.870;2022-12-18T12:56:42;100221.94;;;13.51;71.54
46412;BME280;32113;42.012;24.870;2022-12-18T13:04:37;100232.19;;;13.54;71.32
46412;BME280;32113;42.012;24.870;2022-12-18T13:07:06;100231.38;;;13.52;72.98
46412;BME280;32113;42.012;24.870;2022-12-18T13:09:35;100231.38;;;13.52;71.72
46412;BME280;32113;42.012;24.870;2022-12-18T13:12:20;100242.56;;;13.51;72.30
46412;BME280;32113;42.012;24.870;2022-12-18T13:15:20;100242.56;;;13.52;70.98
46412;BME280;32113;42.012;24.870;2022-12-18T13:17:46;100253.69;;;13.47;70.68
46412;BME280;32113;42.012;24.870;2022-12-18T13:20:12;100258.84;;;13.44;69.29
46412;BME280;32113;42.012;24.870;2022-12-18T13:22:40;100262.31;;;13.38;70.18
46412;BME280;32113;42.012;24.870;2022-12-18T13:27:55;100255.47;;;13.26;70.90
46412;BME280;32113;42.012;24.870;2022-12-18T13:38:32;100276.97;;;13.11;71.45
46412;BME280;32113;42.012;24.870;2022-12-18T13:40:59;100285.56;;;13.05;71.80
46412;BME280;32113;42.012;24.870;2022-12-18T13:46:04;100289.00;;;13.04;72.56
46412;BME280;32113;42.012;24.870;2022-12-18T13:48:31;100291.56;;;13.01;73.40
46412;BME280;32113;42.012;24.870;2022-12-18T13:51:01;100302.72;;;12.98;73.69
46412;BME280;32113;42.012;24.870;2022-12-18T13:53:39;100306.19;;;12.91;73.41
46412;BME280;32113;42.012;24.870;2022-12-18T13:56:08;100307.03;;;12.90;72.91
46412;BME280;32113;42.012;24.870;2022-12-18T13:58:33;100305.31;;;12.84;73.39
46412;BME280;32113;42.012;24.870;2022-12-18T14:00:58;100320.75;;;12.87;73.41
46412;BME280;32113;42.012;24.870;2022-12-18T14:03:28;100322.47;;;12.84;73.14
46412;BME280;32113;42.012;24.870;2022-12-18T14:05:59;100325.03;;;12.82;73.48
46412;BME280;32113;42.012;24.870;2022-12-18T14:08:25;100324.19;;;12.85;73.71